Ride Results

Biggenden (08-09-2018)
Ride distance: 80.0 km

Outcomes - Biggenden (08-09-2018)
Division No. of Entries Retired / DNE Completed Withdrawn Ineligible V/O Percentage Completed
HW 8 - 7 - - 1 87.50%
MW 14 - 12 2 - - 85.71%
LW 19 - 17 1 - 1 89.47%
JN 12 - 10 - - 2 83.33%
Totals 53 - 46 3 - 4 86.79%
Results - Biggenden (08-09-2018)
No. Rider Horse Place Time Leg Speeds Total
Km/Hr
H/R bpm
Heavyweight
8 Olaf Lochtenberg Matta Mia Dayimi 1 (BC) 4:23:33 18.8, 17.5 18.21 32, 48, 45 (Avg:46)
13 Maurice Gray Nathan Park Estasans Legacy 2 6:02:00 13.1, 13.3 13.26 40, 45, 46 (Avg:45)
34 Angela Waldock Gundabah Fair Lady 3 6:03:00 13.1, 13.2 13.22 35, 48, 54 (Avg:51)
10 Glen Fields Beauview Symphony 4 7:19:00 10.9, 10.9 10.93 38, 46, 49 (Avg:47)
38 Gerard Bou Neon 5 7:41:00 11.9, 9.2 10.41 36, 54, 59 (Avg:56)
44 Gavin Bartlett Longrun Drifter 6 7:53:00 10.9, 9.4 10.15 36, 47, 47 (Avg:47)
6 Kerry Watson Amir Shasheekah Rha 7 9:06:00 10.8, 7.4 8.79 32, 46, 51 (Avg:48)
9 Peter Casey Rodborough Amaaya Lame L1 0:00:00 15.4 - 37, 45 (Avg:45)
Middleweight
49 Virginia Barber Performance Park Captain Jack 1 (BC) 4:14:30 18.0, 19.7 18.86 32, 41, 44 (Avg:42)
36 Tanya Trevarthen Manet Ibn Rashan 2 4:40:00 18.7, 15.7 17.14 36, 47, 49 (Avg:48)
12 Johann Willemse Lailarni Jewel 3 6:10:00 12.9, 12.9 12.97 40, 50, 52 (Avg:51)
27 Lexi Morton Shakira BDA 4 6:29:00 13.1, 11.6 12.34 34, 48, 56 (Avg:52)
61 Ruth Dixon El Romero 5 6:38:00 12.9, 11.2 12.06 28, 44, 51 (Avg:47)
26 Bridget Macintyre Champ 5 6:38:00 12.9, 11.2 12.06 36, 48, 57 (Avg:52)
22 Jessie Herman Gheerulla Benson 7 6:41:00 11.7, 12.2 11.97 34, 46, 44 (Avg:45)
47 Bec Miller Splendacrest Quidam 8 6:45:00 11.8, 11.8 11.85 32, 52, 52 (Avg:52)
43 David Urquhart Danic Park Maahallo 9 6:46:00 12.8, 10.9 11.82 33, 52, 49 (Avg:50)
20 Antoine Durand Gheerulla Queen 10 6:54:00 11.5, 11.6 11.59 38, 50, 48 (Avg:49)
11 Anna Fields Academy Dust And Scratches 11 7:19:00 10.9, 10.9 10.93 37, 41, 44 (Avg:42)
39 Renae Kuhn East-Lynne Sahashi 12 7:41:00 11.9, 9.2 10.41 36, 47, 52 (Avg:49)
32 Billie Barron Virgil Withdrawn L1 0:00:00 - - 30, 48 (Avg:48)
31 Ken Moir Dash Withdrawn L1 0:00:00 - - 36, 47 (Avg:47)
Lightweight
48 Sarah Huddleston Winderella Lodge Sphinx 1 (BC) 4:14:00 18.0, 19.8 18.90 30, 44, 41 (Avg:42)
4 Shelley Chapman Sahala Astronomer 2 4:17:06 18.0, 19.3 18.67 31, 43, 49 (Avg:46)
57 Karen Winkel Xanadu Barabbous 3 4:42:01 18.8, 15.4 17.02 41, 51, 51 (Avg:51)
15 Ute Jordan Golden Thunder 4 5:48:00 15.5, 12.3 13.79 36, 46, 44 (Avg:45)
7 Kate Appleby Steel Poppy Zen 5 6:01:00 15.7, 11.4 13.30 33, 51, 50 (Avg:50)
37 Mindy Davies Cearadale Saahara 6 6:10:00 12.9, 12.9 12.97 33, 50, 47 (Avg:48)
25 Karen Fields Woodbourne Chisum 7 6:19:00 13.4, 11.9 12.66 39, 48, 51 (Avg:49)
19 Anne-Lise Lecerf Magic Glenn Torque 8 6:30:00 12.1, 12.4 12.31 36, 44, 45 (Avg:44)
21 Lieke Ros Magic Glenn Archer 8 6:30:00 12.1, 12.4 12.31 33, 47, 45 (Avg:46)
23 Jess Langridge Stirling's Blondie 10 6:41:00 11.7, 12.2 11.97 37, 46, 44 (Avg:45)
58 Kaylea Maher Awarran Park Escort Star 11 6:45:00 11.7, 11.9 11.85 39, 48, 54 (Avg:51)
40 Xanthe Webb Envious te 12 6:46:00 12.8, 10.9 11.82 32, 40, 42 (Avg:41)
35 Sian Crawford Shazane 13 7:05:00 11.6, 10.9 11.29 41, 38, 41 (Avg:39)
1 Clare Fleming Flemingo Aragon 14 7:09:00 11.7, 10.7 11.19 40, 46, 53 (Avg:49)
3 Naomi Lee Flemingo Bombastic 14 7:09:00 11.7, 10.7 11.19 35, 47, 47 (Avg:47)
54 Victoria Clarke Ardair Skoda 16 8:16:00 11.0, 8.6 9.68 36, 44, 42 (Avg:43)
52 Adriana Sardoni Maraahn E'Jaaz 16 8:16:00 11.0, 8.6 9.68 32, 43, 42 (Avg:42)
46 Jessyca Dakin Boonara Zara Withdrawn L1 0:00:00 - - 34, 44 (Avg:44)
14 Shauna Sadikaj Crown Affair Lame L1 0:00:00 13.1 - 32, 45 (Avg:45)
Junior
50 Georgie Barber Sweet Honesty Molleeh 1 (BC) 6:03:00 13.1, 13.2 13.22 36, 39, 43 (Avg:41)
33 Hailie Hanson Riverfire 1 6:03:00 13.1, 13.2 13.22 36, 43, 47 (Avg:45)
16 Zac Sample Gheerulla Hook 3 6:19:00 14.1, 11.4 12.66 36, 53, 47 (Avg:50)
24 Ben Hoey Gheerulla Damascus 4 6:29:00 12.9, 11.7 12.34 35, 45, 48 (Avg:46)
28 Georgia Morton Ramalea Magnum 4 6:29:00 13.1, 11.6 12.34 38, 44, 54 (Avg:49)
5 Maeve Paten Larntainey Silver Treasure 6 6:35:00 12.3, 11.9 12.15 44, 49, 46 (Avg:47)
42 Molly Choyce Bremervale Agent X 7 6:46:00 12.8, 10.9 11.82 35, 44, 49 (Avg:46)
18 Nessy Field Kidaman Ashquar 8 6:54:00 11.5, 11.6 11.59 42, 47, 53 (Avg:50)
45 Tahlea Lochtenberg Gheerulla Ambition 9 7:53:00 11.2, 9.2 10.15 34, 42, 43 (Avg:42)
55 Chintzia Campo Maloo Vale Amir Halo 10 8:16:00 11.0, 8.6 9.68 30, 44, 43 (Avg:43)
56 Adi Imray Ranek Boz Lame L2 0:00:00 18.8, 15.4 - 36, 45, 42 (Avg:43)
2 Scarlet McQueen Monchel Park Charmed I'm Sure Heart Rate L1 0:00:00 11.7 - 42, 57 (Avg:57)